sensor_id;sensor_type;location;lat;lon;timestamp;pressure;altitude;pressure_sealevel;temperature;humidity
35551;BME280;21655;46.056;13.616;2023-05-11T00:00:38;99903.66;;;13.27;100.00
35551;BME280;21655;46.056;13.616;2023-05-11T00:03:03;99882.00;;;13.23;100.00
35551;BME280;21655;46.056;13.616;2023-05-11T00:05:29;99889.09;;;13.25;100.00
35551;BME280;21655;46.056;13.616;2023-05-11T00:07:54;99889.94;;;13.26;100.00
35551;BME280;21655;46.056;13.616;2023-05-11T00:10:19;99869.63;;;13.25;100.00
35551;BME280;21655;46.056;13.616;2023-05-11T00:12:45;99867.03;;;13.30;100.00
35551;BME280;21655;46.056;13.616;2023-05-11T00:15:10;99866.22;;;13.30;100.00
35551;BME280;21655;46.056;13.616;2023-05-11T00:17:36;99863.84;;;13.27;100.00
35551;BME280;21655;46.056;13.616;2023-05-11T00:20:01;99855.06;;;13.30;100.00
35551;BME280;21655;46.056;13.616;2023-05-11T00:22:26;99858.69;;;13.30;100.00
35551;BME280;21655;46.056;13.616;2023-05-11T00:24:52;99857.22;;;13.34;100.00
35551;BME280;21655;46.056;13.616;2023-05-11T00:27:17;99861.72;;;13.35;100.00
35551;BME280;21655;46.056;13.616;2023-05-11T00:29:43;99855.47;;;13.33;100.00
35551;BME280;21655;46.056;13.616;2023-05-11T00:32:08;99859.13;;;13.34;100.00
35551;BME280;21655;46.056;13.616;2023-05-11T00:34:33;99859.78;;;13.36;100.00
35551;BME280;21655;46.056;13.616;2023-05-11T00:36:59;99852.94;;;13.32;100.00
35551;BME280;21655;46.056;13.616;2023-05-11T00:39:24;99854.84;;;13.31;100.00
35551;BME280;21655;46.056;13.616;2023-05-11T00:41:50;99847.34;;;13.25;100.00
35551;BME280;21655;46.056;13.616;2023-05-11T00:44:15;99841.97;;;13.24;100.00
35551;BME280;21655;46.056;13.616;2023-05-11T00:46:41;99843.69;;;13.25;100.00
35551;BME280;21655;46.056;13.616;2023-05-11T00:49:07;99842.59;;;13.26;100.00
35551;BME280;21655;46.056;13.616;2023-05-11T00:51:33;99847.97;;;13.27;100.00
35551;BME280;21655;46.056;13.616;2023-05-11T00:54:00;99841.13;;;13.23;100.00
35551;BME280;21655;46.056;13.616;2023-05-11T00:56:26;99833.22;;;13.27;100.00
35551;BME280;21655;46.056;13.616;2023-05-11T00:58:52;99840.91;;;13.31;100.00
35551;BME280;21655;46.056;13.616;2023-05-11T01:01:17;99837.03;;;13.26;100.00
35551;BME280;21655;46.056;13.616;2023-05-11T01:03:43;99839.63;;;13.27;100.00
35551;BME280;21655;46.056;13.616;2023-05-11T01:08:43;99843.03;;;13.23;100.00
35551;BME280;21655;46.056;13.616;2023-05-11T01:11:22;99848.41;;;13.24;100.00
35551;BME280;21655;46.056;13.616;2023-05-11T01:14:06;99850.75;;;13.21;100.00
35551;BME280;21655;46.056;13.616;2023-05-11T01:16:39;99838.97;;;13.25;100.00
35551;BME280;21655;46.056;13.616;2023-05-11T01:22:09;99840.22;;;13.16;100.00
35551;BME280;21655;46.056;13.616;2023-05-11T01:30:36;99815.41;;;13.21;100.00
35551;BME280;21655;46.056;13.616;2023-05-11T01:32:58;99816.69;;;13.19;100.00
35551;BME280;21655;46.056;13.616;2023-05-11T01:35:28;99819.28;;;13.20;100.00
35551;BME280;21655;46.056;13.616;2023-05-11T01:37:56;99830.63;;;13.19;100.00
35551;BME280;21655;46.056;13.616;2023-05-11T01:40:26;99837.44;;;13.10;100.00
35551;BME280;21655;46.056;13.616;2023-05-11T01:43:04;99829.94;;;13.11;100.00
35551;BME280;21655;46.056;13.616;2023-05-11T01:45:34;99811.53;;;13.10;100.00
35551;BME280;21655;46.056;13.616;2023-05-11T01:48:03;99817.09;;;13.10;100.00
35551;BME280;21655;46.056;13.616;2023-05-11T01:50:30;99819.00;;;13.09;100.00
35551;BME280;21655;46.056;13.616;2023-05-11T01:52:57;99814.09;;;13.05;100.00
35551;BME280;21655;46.056;13.616;2023-05-11T01:55:24;99815.81;;;13.06;100.00
35551;BME280;21655;46.056;13.616;2023-05-11T01:57:52;99807.88;;;13.03;100.00
35551;BME280;21655;46.056;13.616;2023-05-11T02:00:18;99802.31;;;13.03;100.00
35551;BME280;21655;46.056;13.616;2023-05-11T02:02:46;99812.38;;;13.04;100.00
35551;BME280;21655;46.056;13.616;2023-05-11T02:05:20;99799.94;;;13.06;100.00
35551;BME280;21655;46.056;13.616;2023-05-11T02:07:47;99798.47;;;13.04;100.00
35551;BME280;21655;46.056;13.616;2023-05-11T02:10:15;99799.09;;;13.06;100.00
35551;BME280;21655;46.056;13.616;2023-05-11T02:12:42;99804.44;;;13.07;100.00
35551;BME280;21655;46.056;13.616;2023-05-11T02:15:09;99790.50;;;13.01;100.00
35551;BME280;21655;46.056;13.616;2023-05-11T02:17:37;99793.53;;;12.99;100.00
35551;BME280;21655;46.056;13.616;2023-05-11T02:20:04;99798.44;;;12.97;100.00
35551;BME280;21655;46.056;13.616;2023-05-11T02:22:37;99789.22;;;12.97;100.00
35551;BME280;21655;46.056;13.616;2023-05-11T02:25:04;99788.16;;;12.98;100.00
35551;BME280;21655;46.056;13.616;2023-05-11T02:27:31;99797.38;;;12.98;100.00
35551;BME280;21655;46.056;13.616;2023-05-11T02:29:57;99798.22;;;12.99;100.00
35551;BME280;21655;46.056;13.616;2023-05-11T02:32:23;99785.81;;;13.01;100.00
35551;BME280;21655;46.056;13.616;2023-05-11T02:35:04;99787.97;;;13.06;100.00
35551;BME280;21655;46.056;13.616;2023-05-11T02:37:32;99777.25;;;13.09;100.00
35551;BME280;21655;46.056;13.616;2023-05-11T02:40:02;99783.88;;;13.08;100.00
35551;BME280;21655;46.056;13.616;2023-05-11T02:42:35;99790.78;;;13.12;100.00
35551;BME280;21655;46.056;13.616;2023-05-11T02:45:07;99782.44;;;13.12;100.00
35551;BME280;21655;46.056;13.616;2023-05-11T02:47:38;99788.84;;;13.13;100.00
35551;BME280;21655;46.056;13.616;2023-05-11T02:50:06;99793.31;;;13.13;100.00
35551;BME280;21655;46.056;13.616;2023-05-11T02:52:33;99793.78;;;13.17;100.00
35551;BME280;21655;46.056;13.616;2023-05-11T02:55:01;99784.56;;;13.16;100.00
35551;BME280;21655;46.056;13.616;2023-05-11T02:57:27;99785.41;;;13.17;100.00
35551;BME280;21655;46.056;13.616;2023-05-11T02:59:53;99786.50;;;13.16;100.00
35551;BME280;21655;46.056;13.616;2023-05-11T03:02:18;99782.84;;;13.15;100.00
35551;BME280;21655;46.056;13.616;2023-05-11T03:04:44;99785.22;;;13.18;100.00
35551;BME280;21655;46.056;13.616;2023-05-11T03:07:09;99788.00;;;13.18;100.00
35551;BME280;21655;46.056;13.616;2023-05-11T03:09:35;99780.69;;;13.17;100.00
35551;BME280;21655;46.056;13.616;2023-05-11T03:12:02;99778.34;;;13.14;100.00
35551;BME280;21655;46.056;13.616;2023-05-11T03:14:30;99768.06;;;13.15;100.00
35551;BME280;21655;46.056;13.616;2023-05-11T03:16:57;99770.63;;;13.16;100.00
35551;BME280;21655;46.056;13.616;2023-05-11T03:19:23;99773.03;;;13.19;100.00
35551;BME280;21655;46.056;13.616;2023-05-11T03:21:51;99776.44;;;13.15;100.00
35551;BME280;21655;46.056;13.616;2023-05-11T03:24:17;99771.69;;;13.15;100.00
35551;BME280;21655;46.056;13.616;2023-05-11T03:26:43;99774.47;;;13.15;100.00
35551;BME280;21655;46.056;13.616;2023-05-11T03:29:10;99783.06;;;13.14;100.00
35551;BME280;21655;46.056;13.616;2023-05-11T03:31:37;99773.84;;;13.13;100.00
35551;BME280;21655;46.056;13.616;2023-05-11T03:34:03;99768.91;;;13.15;100.00
35551;BME280;21655;46.056;13.616;2023-05-11T03:36:29;99771.28;;;13.12;100.00
35551;BME280;21655;46.056;13.616;2023-05-11T03:38:56;99764.66;;;13.19;100.00
35551;BME280;21655;46.056;13.616;2023-05-11T03:41:24;99770.25;;;13.19;100.00
35551;BME280;21655;46.056;13.616;2023-05-11T03:43:51;99771.94;;;13.14;100.00
35551;BME280;21655;46.056;13.616;2023-05-11T03:46:19;99772.56;;;13.10;100.00
35551;BME280;21655;46.056;13.616;2023-05-11T03:48:45;99774.91;;;13.13;100.00
35551;BME280;21655;46.056;13.616;2023-05-11T03:51:12;99771.94;;;13.14;100.00
35551;BME280;21655;46.056;13.616;2023-05-11T03:53:38;99778.34;;;13.14;100.00
35551;BME280;21655;46.056;13.616;2023-05-11T03:56:04;99774.47;;;13.15;100.00
35551;BME280;21655;46.056;13.616;2023-05-11T03:58:31;99769.34;;;13.13;100.00
35551;BME280;21655;46.056;13.616;2023-05-11T04:00:57;99764.00;;;13.17;100.00
35551;BME280;21655;46.056;13.616;2023-05-11T04:03:23;99767.84;;;13.16;100.00
35551;BME280;21655;46.056;13.616;2023-05-11T04:05:48;99766.78;;;13.17;100.00
35551;BME280;21655;46.056;13.616;2023-05-11T04:08:14;99765.94;;;13.17;100.00
35551;BME280;21655;46.056;13.616;2023-05-11T04:10:39;99776.66;;;13.20;100.00
35551;BME280;21655;46.056;13.616;2023-05-11T04:13:05;99778.59;;;13.19;100.00
35551;BME280;21655;46.056;13.616;2023-05-11T04:15:30;99775.81;;;13.19;100.00
35551;BME280;21655;46.056;13.616;2023-05-11T04:17:56;99771.50;;;13.17;100.00
35551;BME280;21655;46.056;13.616;2023-05-11T04:20:21;99773.41;;;13.16;100.00
35551;BME280;21655;46.056;13.616;2023-05-11T04:22:47;99765.75;;;13.18;100.00
35551;BME280;21655;46.056;13.616;2023-05-11T04:25:12;99760.38;;;13.17;100.00
35551;BME280;21655;46.056;13.616;2023-05-11T04:27:38;99768.72;;;13.17;100.00
35551;BME280;21655;46.056;13.616;2023-05-11T04:30:04;99766.78;;;13.17;100.00
35551;BME280;21655;46.056;13.616;2023-05-11T04:32:30;99766.78;;;13.24;100.00
35551;BME280;21655;46.056;13.616;2023-05-11T04:34:55;99774.06;;;13.25;100.00
35551;BME280;21655;46.056;13.616;2023-05-11T04:37:21;99758.44;;;13.30;100.00
35551;BME280;21655;46.056;13.616;2023-05-11T04:39:46;99770.47;;;13.31;100.00
35551;BME280;21655;46.056;13.616;2023-05-11T04:42:12;99761.88;;;13.39;100.00
35551;BME280;21655;46.056;13.616;2023-05-11T04:44:37;99762.97;;;13.38;100.00
35551;BME280;21655;46.056;13.616;2023-05-11T04:47:03;99754.84;;;13.36;100.00
35551;BME280;21655;46.056;13.616;2023-05-11T04:49:29;99761.06;;;13.38;100.00
35551;BME280;21655;46.056;13.616;2023-05-11T04:51:54;99756.97;;;13.41;100.00
35551;BME280;21655;46.056;13.616;2023-05-11T04:54:19;99755.03;;;13.35;100.00
35551;BME280;21655;46.056;13.616;2023-05-11T04:56:45;99746.06;;;13.39;100.00
35551;BME280;21655;46.056;13.616;2023-05-11T04:59:10;99759.97;;;13.46;100.00
35551;BME280;21655;46.056;13.616;2023-05-11T05:01:36;99764.50;;;13.53;100.00
35551;BME280;21655;46.056;13.616;2023-05-11T05:04:01;99751.84;;;13.64;100.00
35551;BME280;21655;46.056;13.616;2023-05-11T05:06:27;99752.28;;;13.67;100.00
35551;BME280;21655;46.056;13.616;2023-05-11T05:08:52;99752.47;;;13.79;100.00
35551;BME280;21655;46.056;13.616;2023-05-11T05:11:18;99749.69;;;13.85;100.00
35551;BME280;21655;46.056;13.616;2023-05-11T05:13:43;99767.25;;;13.99;100.00
35551;BME280;21655;46.056;13.616;2023-05-11T05:16:09;99755.00;;;14.06;100.00
35551;BME280;21655;46.056;13.616;2023-05-11T05:18:34;99757.34;;;14.03;100.00
35551;BME280;21655;46.056;13.616;2023-05-11T05:21:01;99757.59;;;13.95;100.00
35551;BME280;21655;46.056;13.616;2023-05-11T05:23:26;99759.50;;;14.07;100.00
35551;BME280;21655;46.056;13.616;2023-05-11T05:25:52;99761.00;;;14.10;100.00
35551;BME280;21655;46.056;13.616;2023-05-11T05:28:17;99763.38;;;14.19;100.00
35551;BME280;21655;46.056;13.616;2023-05-11T05:30:43;99762.94;;;14.22;100.00
35551;BME280;21655;46.056;13.616;2023-05-11T05:33:08;99764.00;;;14.21;100.00
35551;BME280;21655;46.056;13.616;2023-05-11T05:35:33;99771.75;;;14.26;100.00
35551;BME280;21655;46.056;13.616;2023-05-11T05:37:59;99767.63;;;14.28;100.00
35551;BME280;21655;46.056;13.616;2023-05-11T05:40:24;99754.75;;;14.34;100.00
35551;BME280;21655;46.056;13.616;2023-05-11T05:42:50;99758.81;;;14.38;100.00
35551;BME280;21655;46.056;13.616;2023-05-11T05:45:15;99751.13;;;14.33;100.00
35551;BME280;21655;46.056;13.616;2023-05-11T05:47:40;99746.81;;;14.31;100.00
35551;BME280;21655;46.056;13.616;2023-05-11T05:50:06;99739.97;;;14.33;100.00
35551;BME280;21655;46.056;13.616;2023-05-11T05:52:32;99753.22;;;14.38;100.00
35551;BME280;21655;46.056;13.616;2023-05-11T05:54:57;99751.75;;;14.35;100.00
35551;BME280;21655;46.056;13.616;2023-05-11T05:57:23;99749.38;;;14.32;100.00
35551;BME280;21655;46.056;13.616;2023-05-11T05:59:48;99753.06;;;14.26;100.00
35551;BME280;21655;46.056;13.616;2023-05-11T06:02:14;99748.75;;;14.30;100.00
35551;BME280;21655;46.056;13.616;2023-05-11T06:04:40;99743.78;;;14.39;100.00
35551;BME280;21655;46.056;13.616;2023-05-11T06:07:06;99742.31;;;14.36;100.00
35551;BME280;21655;46.056;13.616;2023-05-11T06:09:31;99724.94;;;14.34;100.00
35551;BME280;21655;46.056;13.616;2023-05-11T06:11:57;99737.78;;;14.42;100.00
35551;BME280;21655;46.056;13.616;2023-05-11T06:14:22;99733.88;;;14.49;100.00
35551;BME280;21655;46.056;13.616;2023-05-11T06:16:48;99729.38;;;14.48;100.00
35551;BME280;21655;46.056;13.616;2023-05-11T06:19:13;99745.44;;;14.53;100.00
35551;BME280;21655;46.056;13.616;2023-05-11T06:21:39;99744.63;;;14.52;100.00
35551;BME280;21655;46.056;13.616;2023-05-11T06:24:08;99739.44;;;14.49;100.00
35551;BME280;21655;46.056;13.616;2023-05-11T06:26:33;99747.22;;;14.41;100.00
35551;BME280;21655;46.056;13.616;2023-05-11T06:28:59;99725.78;;;14.35;100.00
35551;BME280;21655;46.056;13.616;2023-05-11T06:31:24;99706.25;;;14.35;100.00
35551;BME280;21655;46.056;13.616;2023-05-11T06:33:49;99716.97;;;14.38;100.00
35551;BME280;21655;46.056;13.616;2023-05-11T06:36:15;99707.75;;;14.37;100.00
35551;BME280;21655;46.056;13.616;2023-05-11T06:38:40;99729.81;;;14.45;100.00
35551;BME280;21655;46.056;13.616;2023-05-11T06:41:06;99723.38;;;14.51;100.00
35551;BME280;21655;46.056;13.616;2023-05-11T06:43:33;99732.22;;;14.42;100.00
35551;BME280;21655;46.056;13.616;2023-05-11T06:45:59;99709.03;;;14.41;100.00
35551;BME280;21655;46.056;13.616;2023-05-11T06:48:24;99722.53;;;14.44;100.00
35551;BME280;21655;46.056;13.616;2023-05-11T06:50:50;99706.19;;;14.54;100.00
35551;BME280;21655;46.056;13.616;2023-05-11T06:53:16;99729.59;;;14.53;100.00
35551;BME280;21655;46.056;13.616;2023-05-11T06:55:42;99710.25;;;14.58;100.00
35551;BME280;21655;46.056;13.616;2023-05-11T06:58:07;99707.41;;;14.65;100.00
35551;BME280;21655;46.056;13.616;2023-05-11T07:00:33;99720.53;;;14.58;100.00
35551;BME280;21655;46.056;13.616;2023-05-11T07:02:58;99720.13;;;14.54;100.00
35551;BME280;21655;46.056;13.616;2023-05-11T07:05:24;99734.28;;;14.59;100.00
35551;BME280;21655;46.056;13.616;2023-05-11T07:07:49;99730.19;;;14.62;100.00
35551;BME280;21655;46.056;13.616;2023-05-11T07:10:15;99720.28;;;14.66;100.00
35551;BME280;21655;46.056;13.616;2023-05-11T07:12:40;99714.56;;;14.54;100.00
35551;BME280;21655;46.056;13.616;2023-05-11T07:15:06;99713.03;;;14.58;100.00
35551;BME280;21655;46.056;13.616;2023-05-11T07:17:31;99714.53;;;14.61;100.00
35551;BME280;21655;46.056;13.616;2023-05-11T07:19:57;99710.25;;;14.58;100.00
35551;BME280;21655;46.056;13.616;2023-05-11T07:22:22;99722.44;;;14.64;100.00
35551;BME280;21655;46.056;13.616;2023-05-11T07:24:48;99734.28;;;14.53;100.00
35551;BME280;21655;46.056;13.616;2023-05-11T07:27:13;99744.22;;;14.42;100.00
35551;BME280;21655;46.056;13.616;2023-05-11T07:29:39;99741.88;;;14.33;100.00
35551;BME280;21655;46.056;13.616;2023-05-11T07:32:04;99748.09;;;14.15;100.00
35551;BME280;21655;46.056;13.616;2023-05-11T07:34:30;99742.97;;;14.12;100.00
35551;BME280;21655;46.056;13.616;2023-05-11T07:36:55;99744.06;;;14.24;100.00
35551;BME280;21655;46.056;13.616;2023-05-11T07:39:21;99732.88;;;14.31;100.00
35551;BME280;21655;46.056;13.616;2023-05-11T07:41:46;99743.41;;;14.29;100.00
35551;BME280;21655;46.056;13.616;2023-05-11T07:44:11;99750.25;;;14.33;100.00
35551;BME280;21655;46.056;13.616;2023-05-11T07:46:37;99740.38;;;14.30;100.00
35551;BME280;21655;46.056;13.616;2023-05-11T07:49:02;99764.41;;;14.25;100.00
35551;BME280;21655;46.056;13.616;2023-05-11T07:51:28;99771.75;;;14.19;100.00
35551;BME280;21655;46.056;13.616;2023-05-11T07:53:53;99763.56;;;14.24;100.00
35551;BME280;21655;46.056;13.616;2023-05-11T07:56:19;99762.03;;;14.35;100.00
35551;BME280;21655;46.056;13.616;2023-05-11T07:58:44;99750.25;;;14.33;100.00
35551;BME280;21655;46.056;13.616;2023-05-11T08:01:10;99752.38;;;14.37;100.00
35551;BME280;21655;46.056;13.616;2023-05-11T08:03:35;99757.31;;;14.42;100.00
35551;BME280;21655;46.056;13.616;2023-05-11T08:06:02;99762.69;;;14.30;100.00
35551;BME280;21655;46.056;13.616;2023-05-11T08:08:27;99768.94;;;14.26;100.00
35551;BME280;21655;46.056;13.616;2023-05-11T08:10:54;99773.03;;;14.23;100.00
35551;BME280;21655;46.056;13.616;2023-05-11T08:13:20;99777.09;;;14.21;100.00
35551;BME280;21655;46.056;13.616;2023-05-11T08:15:45;99776.25;;;14.20;100.00
35551;BME280;21655;46.056;13.616;2023-05-11T08:18:11;99780.31;;;14.18;100.00
35551;BME280;21655;46.056;13.616;2023-05-11T08:20:36;99774.28;;;14.14;100.00
35551;BME280;21655;46.056;13.616;2023-05-11T08:23:03;99772.38;;;14.08;100.00
35551;BME280;21655;46.056;13.616;2023-05-11T08:25:28;99780.94;;;14.20;100.00
35551;BME280;21655;46.056;13.616;2023-05-11T08:27:54;99788.88;;;14.23;100.00
35551;BME280;21655;46.056;13.616;2023-05-11T08:30:19;99787.78;;;14.37;100.00
35551;BME280;21655;46.056;13.616;2023-05-11T08:32:45;99795.28;;;14.43;100.00
35551;BME280;21655;46.056;13.616;2023-05-11T08:35:11;99792.91;;;14.46;100.00
35551;BME280;21655;46.056;13.616;2023-05-11T08:37:37;99787.53;;;14.51;100.00
35551;BME280;21655;46.056;13.616;2023-05-11T08:40:03;99781.09;;;14.44;100.00
35551;BME280;21655;46.056;13.616;2023-05-11T08:42:32;99778.09;;;14.52;100.00
35551;BME280;21655;46.056;13.616;2023-05-11T08:44:58;99782.78;;;14.58;100.00
35551;BME280;21655;46.056;13.616;2023-05-11T08:47:25;99772.88;;;14.69;100.00
35551;BME280;21655;46.056;13.616;2023-05-11T08:49:52;99778.22;;;14.70;100.00
35551;BME280;21655;46.056;13.616;2023-05-11T08:52:18;99776.06;;;14.72;100.00
35551;BME280;21655;46.056;13.616;2023-05-11T08:54:44;99781.47;;;14.67;100.00
35551;BME280;21655;46.056;13.616;2023-05-11T08:57:11;99780.41;;;14.62;100.00
35551;BME280;21655;46.056;13.616;2023-05-11T08:59:37;99789.78;;;14.74;100.00
35551;BME280;21655;46.056;13.616;2023-05-11T09:02:03;99782.72;;;14.78;100.00
35551;BME280;21655;46.056;13.616;2023-05-11T09:04:30;99780.72;;;14.85;100.00
35551;BME280;21655;46.056;13.616;2023-05-11T09:06:57;99783.16;;;14.75;100.00
35551;BME280;21655;46.056;13.616;2023-05-11T09:09:22;99781.81;;;14.84;100.00
35551;BME280;21655;46.056;13.616;2023-05-11T09:11:48;99785.00;;;14.94;100.00
35551;BME280;21655;46.056;13.616;2023-05-11T09:14:14;99789.88;;;14.98;100.00
35551;BME280;21655;46.056;13.616;2023-05-11T09:16:39;99783.84;;;15.07;100.00
35551;BME280;21655;46.056;13.616;2023-05-11T09:19:05;99783.78;;;15.14;100.00
35551;BME280;21655;46.056;13.616;2023-05-11T09:21:30;99780.56;;;15.17;100.00
35551;BME280;21655;46.056;13.616;2023-05-11T09:23:56;99777.09;;;15.21;100.00
35551;BME280;21655;46.056;13.616;2023-05-11T09:26:25;99772.19;;;15.17;100.00
35551;BME280;21655;46.056;13.616;2023-05-11T09:28:55;99768.72;;;15.21;100.00
35551;BME280;21655;46.056;13.616;2023-05-11T09:31:42;99751.44;;;15.37;100.00
35551;BME280;21655;46.056;13.616;2023-05-11T09:34:20;99755.56;;;15.28;100.00
35551;BME280;21655;46.056;13.616;2023-05-11T09:36:47;99754.78;;;15.15;100.00
35551;BME280;21655;46.056;13.616;2023-05-11T09:39:13;99743.44;;;15.10;100.00
35551;BME280;21655;46.056;13.616;2023-05-11T09:41:39;99740.41;;;15.18;100.00
35551;BME280;21655;46.056;13.616;2023-05-11T09:44:12;99751.06;;;15.27;100.00
35551;BME280;21655;46.056;13.616;2023-05-11T09:46:38;99756.66;;;15.27;100.00
35551;BME280;21655;46.056;13.616;2023-05-11T09:49:04;99746.72;;;15.38;100.00
35551;BME280;21655;46.056;13.616;2023-05-11T09:51:32;99764.31;;;15.38;100.00
35551;BME280;21655;46.056;13.616;2023-05-11T09:53:58;99755.34;;;15.30;100.00
35551;BME280;21655;46.056;13.616;2023-05-11T09:56:47;99753.94;;;15.14;100.00
35551;BME280;21655;46.056;13.616;2023-05-11T09:59:15;99758.22;;;15.17;100.00
35551;BME280;21655;46.056;13.616;2023-05-11T10:01:41;99754.75;;;15.21;100.00
35551;BME280;21655;46.056;13.616;2023-05-11T10:04:06;99747.00;;;15.23;100.00
35551;BME280;21655;46.056;13.616;2023-05-11T10:06:50;99762.28;;;15.21;100.00
35551;BME280;21655;46.056;13.616;2023-05-11T10:09:18;99756.44;;;15.29;100.00
35551;BME280;21655;46.056;13.616;2023-05-11T10:11:47;99757.31;;;15.23;100.00
35551;BME280;21655;46.056;13.616;2023-05-11T10:14:14;99762.81;;;15.05;100.00
35551;BME280;21655;46.056;13.616;2023-05-11T10:16:41;99769.19;;;15.12;100.00
35551;BME280;21655;46.056;13.616;2023-05-11T10:19:07;99761.66;;;15.19;100.00
35551;BME280;21655;46.056;13.616;2023-05-11T10:21:33;99762.00;;;15.35;100.00
35551;BME280;21655;46.056;13.616;2023-05-11T10:24:00;99762.03;;;15.29;100.00
35551;BME280;21655;46.056;13.616;2023-05-11T10:26:27;99765.03;;;15.34;100.00
35551;BME280;21655;46.056;13.616;2023-05-11T10:28:54;99769.13;;;15.25;100.00
35551;BME280;21655;46.056;13.616;2023-05-11T10:31:20;99762.91;;;15.23;100.00
35551;BME280;21655;46.056;13.616;2023-05-11T10:33:50;99760.56;;;15.20;100.00
35551;BME280;21655;46.056;13.616;2023-05-11T10:36:22;99748.94;;;15.23;100.00
35551;BME280;21655;46.056;13.616;2023-05-11T10:38:47;99760.13;;;15.23;100.00
35551;BME280;21655;46.056;13.616;2023-05-11T10:41:27;99758.41;;;15.22;100.00
35551;BME280;21655;46.056;13.616;2023-05-11T10:50:22;99753.91;;;15.21;100.00
35551;BME280;21655;46.056;13.616;2023-05-11T11:01:25;99756.59;;;15.40;100.00
35551;BME280;21655;46.056;13.616;2023-05-11T11:03:59;99758.31;;;15.41;100.00
35551;BME280;21655;46.056;13.616;2023-05-11T11:06:27;99749.53;;;15.38;100.00
35551;BME280;21655;46.056;13.616;2023-05-11T11:08:54;99754.66;;;15.41;100.00
35551;BME280;21655;46.056;13.616;2023-05-11T11:11:35;99751.03;;;15.40;100.00
35551;BME280;21655;46.056;13.616;2023-05-11T11:14:01;99752.94;;;15.40;100.00
35551;BME280;21655;46.056;13.616;2023-05-11T11:16:30;99749.47;;;15.44;100.00
35551;BME280;21655;46.056;13.616;2023-05-11T11:22:00;99761.50;;;15.45;100.00
35551;BME280;21655;46.056;13.616;2023-05-11T11:27:01;99756.81;;;15.39;100.00
35551;BME280;21655;46.056;13.616;2023-05-11T11:29:28;99757.81;;;15.51;100.00
35551;BME280;21655;46.056;13.616;2023-05-11T11:31:53;99762.53;;;15.50;100.00
35551;BME280;21655;46.056;13.616;2023-05-11T11:39:20;99749.19;;;15.52;100.00
35551;BME280;21655;46.056;13.616;2023-05-11T11:41:58;99765.44;;;15.62;100.00
35551;BME280;21655;46.056;13.616;2023-05-11T11:44:25;99761.28;;;15.71;100.00
35551;BME280;21655;46.056;13.616;2023-05-11T11:49:38;99756.94;;;15.75;100.00
35551;BME280;21655;46.056;13.616;2023-05-11T11:52:04;99762.91;;;15.85;100.00
35551;BME280;21655;46.056;13.616;2023-05-11T11:54:37;99756.53;;;15.71;100.00
35551;BME280;21655;46.056;13.616;2023-05-11T11:57:03;99760.66;;;15.69;100.00
35551;BME280;21655;46.056;13.616;2023-05-11T11:59:29;99760.78;;;15.56;100.00
35551;BME280;21655;46.056;13.616;2023-05-11T12:01:55;99760.00;;;15.73;100.00
35551;BME280;21655;46.056;13.616;2023-05-11T12:04:37;99768.03;;;15.88;100.00
35551;BME280;21655;46.056;13.616;2023-05-11T12:07:05;99763.13;;;15.83;100.00
35551;BME280;21655;46.056;13.616;2023-05-11T12:09:32;99768.44;;;15.67;100.00
35551;BME280;21655;46.056;13.616;2023-05-11T12:12:01;99757.06;;;15.62;100.00
35551;BME280;21655;46.056;13.616;2023-05-11T12:14:26;99770.06;;;15.50;100.00
35551;BME280;21655;46.056;13.616;2023-05-11T12:17:01;99774.41;;;15.70;100.00
35551;BME280;21655;46.056;13.616;2023-05-11T12:19:27;99777.66;;;15.67;100.00
35551;BME280;21655;46.056;13.616;2023-05-11T12:21:53;99780.13;;;15.57;100.00
35551;BME280;21655;46.056;13.616;2023-05-11T12:24:18;99783.97;;;15.81;100.00
35551;BME280;21655;46.056;13.616;2023-05-11T12:26:43;99784.06;;;15.99;100.00
35551;BME280;21655;46.056;13.616;2023-05-11T12:29:13;99789.97;;;16.09;100.00
35551;BME280;21655;46.056;13.616;2023-05-11T12:31:43;99786.28;;;16.15;100.00
35551;BME280;21655;46.056;13.616;2023-05-11T12:34:18;99777.47;;;16.36;100.00
35551;BME280;21655;46.056;13.616;2023-05-11T12:36:45;99780.84;;;16.44;100.00
35551;BME280;21655;46.056;13.616;2023-05-11T12:39:22;99783.22;;;16.41;100.00
35551;BME280;21655;46.056;13.616;2023-05-11T12:41:48;99774.63;;;16.42;100.00
35551;BME280;21655;46.056;13.616;2023-05-11T12:44:15;99770.09;;;16.41;100.00
35551;BME280;21655;46.056;13.616;2023-05-11T12:46:42;99756.47;;;16.45;100.00
35551;BME280;21655;46.056;13.616;2023-05-11T12:49:08;99765.97;;;16.62;100.00
35551;BME280;21655;46.056;13.616;2023-05-11T12:56:57;99773.13;;;16.76;100.00
35551;BME280;21655;46.056;13.616;2023-05-11T13:01:49;99776.28;;;16.97;100.00
35551;BME280;21655;46.056;13.616;2023-05-11T13:04:40;99764.09;;;16.92;100.00
35551;BME280;21655;46.056;13.616;2023-05-11T13:07:07;99772.44;;;16.80;100.00
35551;BME280;21655;46.056;13.616;2023-05-11T13:09:33;99767.69;;;16.81;100.00
35551;BME280;21655;46.056;13.616;2023-05-11T13:12:15;99765.53;;;16.65;100.00
35551;BME280;21655;46.056;13.616;2023-05-11T13:14:49;99765.53;;;16.65;100.00
35551;BME280;21655;46.056;13.616;2023-05-11T13:17:35;99771.81;;;16.42;100.00
35551;BME280;21655;46.056;13.616;2023-05-11T13:20:20;99777.78;;;16.21;100.00
35551;BME280;21655;46.056;13.616;2023-05-11T13:22:48;99781.47;;;16.22;100.00
35551;BME280;21655;46.056;13.616;2023-05-11T13:25:16;99795.91;;;16.19;100.00
35551;BME280;21655;46.056;13.616;2023-05-11T13:27:42;99797.47;;;16.15;100.00